Time;durP1;ratioP1;P1;durP2;ratioP2;P2;SDS_P1;SDS_P2;PMS_P1;PMS_P2;Temp;Humidity;BMP_temperature;BMP_pressure;BME280_temperature;BME280_humidity;BME280_pressure;Samples;Min_cycle;Max_cycle;Signal;HPM_P1;HPM_P2
2022/11/30 00:02:23;;;;;;;40.72;20.15;;;;;;;;;;4917509;28;20054;-82
2022/11/30 00:04:49;;;;;;;40.88;21.85;;;;;;;;;;4933874;29;20043;-82
2022/11/30 00:07:14;;;;;;;42.60;21.38;;;;;;;;;;4935929;29;20518;-82
2022/11/30 00:09:40;;;;;;;43.10;21.55;;;;;;;;;;4933868;28;20572;-81
2022/11/30 00:12:06;;;;;;;43.88;22.02;;;;;;;;;;4933627;29;20043;-82
2022/11/30 00:14:31;;;;;;;46.50;22.50;;;;;;;;;;4905539;29;20605;-83
2022/11/30 00:16:56;;;;;;;42.10;20.58;;;;;;;;;;4935784;29;20130;-83
2022/11/30 00:19:22;;;;;;;44.33;21.92;;;;;;;;;;4921957;28;20427;-82
2022/11/30 00:21:48;;;;;;;40.45;20.92;;;;;;;;;;4921883;29;20035;-83
2022/11/30 00:24:13;;;;;;;43.13;21.42;;;;;;;;;;4919838;29;20031;-82
2022/11/30 00:26:39;;;;;;;44.33;21.33;;;;;;;;;;4921353;29;20032;-82
2022/11/30 00:29:04;;;;;;;45.20;22.50;;;;;;;;;;4933765;28;20044;-82
2022/11/30 00:31:29;;;;;;;45.08;22.25;;;;;;;;;;4918797;29;20075;-83
2022/11/30 00:33:55;;;;;;;46.25;22.23;;;;;;;;;;4921694;28;20050;-83
2022/11/30 00:36:21;;;;;;;42.60;20.88;;;;;;;;;;4919245;29;20094;-82
2022/11/30 00:38:48;;;;;;;40.08;21.40;;;;;;;;;;4918134;29;20038;-82
2022/11/30 00:41:14;;;;;;;46.42;22.90;;;;;;;;;;4930192;29;20062;-83
2022/11/30 00:43:39;;;;;;;46.00;21.90;;;;;;;;;;4919768;29;20047;-82
2022/11/30 00:46:05;;;;;;;45.67;22.02;;;;;;;;;;4920791;28;20380;-82
2022/11/30 00:48:31;;;;;;;41.28;21.33;;;;;;;;;;4918849;29;20647;-82
2022/11/30 00:50:56;;;;;;;40.65;21.35;;;;;;;;;;4918983;28;20039;-82
2022/11/30 00:53:22;;;;;;;38.92;20.42;;;;;;;;;;4932473;29;20082;-82
2022/11/30 00:55:47;;;;;;;43.90;21.80;;;;;;;;;;4915697;29;20067;-82
2022/11/30 00:58:13;;;;;;;42.65;22.63;;;;;;;;;;4915754;29;20042;-82
2022/11/30 01:00:39;;;;;;;46.70;23.45;;;;;;;;;;4917430;28;20047;-83
2022/11/30 01:03:04;;;;;;;40.88;21.13;;;;;;;;;;4918086;28;20043;-82
2022/11/30 01:05:34;;;;;;;44.40;21.92;;;;;;;;;;4913780;28;20839;-82
2022/11/30 01:08:01;;;;;;;45.35;23.25;;;;;;;;;;4932081;28;20480;-82
2022/11/30 01:10:26;;;;;;;43.13;22.10;;;;;;;;;;4934510;29;20032;-82
2022/11/30 01:12:52;;;;;;;43.13;23.42;;;;;;;;;;4918248;29;20636;-82
2022/11/30 01:15:18;;;;;;;45.08;22.17;;;;;;;;;;4930551;29;20046;-82
2022/11/30 01:17:43;;;;;;;51.67;23.52;;;;;;;;;;4931319;29;20399;-83
2022/11/30 01:20:09;;;;;;;47.30;22.92;;;;;;;;;;4918021;28;20043;-83
2022/11/30 01:22:35;;;;;;;47.70;23.13;;;;;;;;;;4918429;28;20043;-83
2022/11/30 01:25:01;;;;;;;43.47;22.15;;;;;;;;;;4916220;29;20541;-83
2022/11/30 01:27:28;;;;;;;40.13;21.50;;;;;;;;;;4933773;29;20050;-82
2022/11/30 01:29:56;;;;;;;45.00;22.08;;;;;;;;;;4914857;29;20567;-82
2022/11/30 01:32:22;;;;;;;44.20;22.20;;;;;;;;;;4930246;29;20123;-82
2022/11/30 01:34:47;;;;;;;45.15;23.08;;;;;;;;;;4917193;29;20114;-81
2022/11/30 01:37:13;;;;;;;39.58;21.10;;;;;;;;;;4930093;29;20031;-82
2022/11/30 01:39:38;;;;;;;42.42;21.80;;;;;;;;;;4934119;28;20039;-82
2022/11/30 01:42:05;;;;;;;46.55;23.02;;;;;;;;;;4912670;29;20032;-81
2022/11/30 01:44:31;;;;;;;44.13;21.00;;;;;;;;;;4932737;29;20411;-81
2022/11/30 01:47:09;;;;;;;43.33;21.05;;;;;;;;;;4931305;29;20036;-81
2022/11/30 01:49:38;;;;;;;42.67;20.98;;;;;;;;;;4930588;28;20044;-82
2022/11/30 01:52:04;;;;;;;46.33;22.63;;;;;;;;;;4906645;28;20496;-81
2022/11/30 01:54:36;;;;;;;45.33;22.17;;;;;;;;;;4928961;29;20050;-81
2022/11/30 01:57:08;;;;;;;42.85;22.02;;;;;;;;;;4916085;29;20445;-81
2022/11/30 01:59:34;;;;;;;47.35;23.13;;;;;;;;;;4932403;28;20494;-82
2022/11/30 02:01:59;;;;;;;44.92;22.02;;;;;;;;;;4917322;29;20042;-83
2022/11/30 02:04:29;;;;;;;46.30;23.30;;;;;;;;;;4918900;28;20567;-81
2022/11/30 02:06:58;;;;;;;48.50;22.70;;;;;;;;;;4916249;29;20042;-80
2022/11/30 02:09:26;;;;;;;43.17;22.77;;;;;;;;;;4917679;29;20044;-82
2022/11/30 02:11:51;;;;;;;43.42;22.40;;;;;;;;;;4916971;29;20043;-81
2022/11/30 02:14:38;;;;;;;45.45;22.70;;;;;;;;;;4917473;29;20047;-82
2022/11/30 02:17:12;;;;;;;46.05;22.50;;;;;;;;;;4903321;29;20405;-82
2022/11/30 02:20:01;;;;;;;43.65;22.17;;;;;;;;;;4914645;28;20505;-83
2022/11/30 02:22:58;;;;;;;46.30;22.45;;;;;;;;;;4933475;28;20036;-82
2022/11/30 02:25:35;;;;;;;41.72;21.13;;;;;;;;;;4945386;28;20083;-82
2022/11/30 02:28:13;;;;;;;42.35;22.83;;;;;;;;;;4930663;28;20050;-83
2022/11/30 02:30:42;;;;;;;41.92;22.65;;;;;;;;;;4935292;28;20042;-81
2022/11/30 02:33:17;;;;;;;47.90;22.60;;;;;;;;;;4915891;29;20276;-82
2022/11/30 02:35:46;;;;;;;48.67;23.27;;;;;;;;;;4915661;28;20038;-82
2022/11/30 02:38:12;;;;;;;47.00;23.25;;;;;;;;;;4905013;29;20138;-83
2022/11/30 02:40:40;;;;;;;47.42;22.92;;;;;;;;;;4912064;29;20063;-82
2022/11/30 02:43:06;;;;;;;50.88;23.55;;;;;;;;;;4933057;28;20537;-83
2022/11/30 02:45:34;;;;;;;44.22;21.58;;;;;;;;;;4931005;29;20084;-82
2022/11/30 02:48:10;;;;;;;46.47;22.55;;;;;;;;;;4929621;29;20118;-82
2022/11/30 02:50:46;;;;;;;46.58;23.27;;;;;;;;;;4930217;28;20428;-82
2022/11/30 02:53:12;;;;;;;47.22;22.70;;;;;;;;;;4916626;29;20035;-82
2022/11/30 02:55:38;;;;;;;44.78;22.30;;;;;;;;;;4915450;28;20685;-82
2022/11/30 02:58:04;;;;;;;44.90;21.92;;;;;;;;;;4916086;29;20050;-82
2022/11/30 03:00:32;;;;;;;46.15;23.35;;;;;;;;;;4911393;28;20040;-83
2022/11/30 03:03:00;;;;;;;46.40;22.63;;;;;;;;;;4912110;29;20853;-82
2022/11/30 03:05:28;;;;;;;45.45;22.60;;;;;;;;;;4916478;29;20040;-82
2022/11/30 03:07:54;;;;;;;48.25;23.63;;;;;;;;;;4915613;29;20074;-82
2022/11/30 03:10:19;;;;;;;48.30;22.73;;;;;;;;;;4914080;29;20055;-82
2022/11/30 03:12:45;;;;;;;45.45;22.88;;;;;;;;;;4930547;29;20035;-82
2022/11/30 03:15:10;;;;;;;47.13;22.73;;;;;;;;;;4916352;29;20392;-83
2022/11/30 03:17:36;;;;;;;45.13;22.85;;;;;;;;;;4917511;28;20082;-83
2022/11/30 03:20:01;;;;;;;45.30;23.13;;;;;;;;;;4918050;29;20043;-83
2022/11/30 03:22:26;;;;;;;44.00;21.48;;;;;;;;;;4911878;29;20055;-82
2022/11/30 03:24:52;;;;;;;44.78;22.83;;;;;;;;;;4915016;29;20035;-82
2022/11/30 03:27:17;;;;;;;42.90;22.20;;;;;;;;;;4917753;29;20039;-82
2022/11/30 03:29:42;;;;;;;46.75;22.02;;;;;;;;;;4916149;29;20560;-82
2022/11/30 03:32:08;;;;;;;52.42;24.30;;;;;;;;;;4918540;29;20034;-82
2022/11/30 03:34:33;;;;;;;46.70;22.65;;;;;;;;;;4922783;28;20055;-83
2022/11/30 03:36:59;;;;;;;43.35;21.38;;;;;;;;;;4916068;28;20094;-82
2022/11/30 03:39:24;;;;;;;48.95;22.52;;;;;;;;;;4934991;28;20043;-82
2022/11/30 03:41:50;;;;;;;51.22;24.05;;;;;;;;;;4927242;29;20032;-81
2022/11/30 03:44:16;;;;;;;43.88;22.48;;;;;;;;;;4912652;29;20054;-81
2022/11/30 03:46:41;;;;;;;43.97;22.95;;;;;;;;;;4917008;28;20121;-82
2022/11/30 03:49:07;;;;;;;45.17;22.52;;;;;;;;;;4914613;29;20487;-81
2022/11/30 03:51:32;;;;;;;43.08;22.20;;;;;;;;;;4916478;28;20559;-85
2022/11/30 03:53:58;;;;;;;45.00;21.92;;;;;;;;;;4903163;29;20089;-85
2022/11/30 03:56:24;;;;;;;45.15;22.10;;;;;;;;;;4930229;29;20066;-85
2022/11/30 03:58:50;;;;;;;42.60;21.85;;;;;;;;;;4915035;29;20035;-84
2022/11/30 04:01:21;;;;;;;42.75;22.73;;;;;;;;;;4932090;29;20039;-85
2022/11/30 04:03:46;;;;;;;46.42;23.23;;;;;;;;;;4915817;29;20083;-85
2022/11/30 04:06:15;;;;;;;44.50;23.85;;;;;;;;;;4930687;29;20036;-85
2022/11/30 04:08:40;;;;;;;41.88;21.05;;;;;;;;;;4914469;29;20511;-85
2022/11/30 04:11:06;;;;;;;42.53;21.65;;;;;;;;;;4930376;29;20035;-85
2022/11/30 04:13:33;;;;;;;46.38;22.23;;;;;;;;;;4933098;29;20048;-85
2022/11/30 04:15:58;;;;;;;42.20;21.80;;;;;;;;;;4900865;29;20040;-85
2022/11/30 04:18:25;;;;;;;41.65;21.92;;;;;;;;;;4916220;29;20558;-85
2022/11/30 04:20:52;;;;;;;39.92;22.27;;;;;;;;;;4914484;29;20039;-86
2022/11/30 04:23:18;;;;;;;44.42;22.20;;;;;;;;;;4931141;29;20035;-86
2022/11/30 04:25:44;;;;;;;47.20;22.92;;;;;;;;;;4935955;29;20035;-85
2022/11/30 04:28:10;;;;;;;45.03;22.15;;;;;;;;;;4915975;29;20036;-85
2022/11/30 04:30:36;;;;;;;45.63;22.80;;;;;;;;;;4916190;29;20035;-84
2022/11/30 04:33:02;;;;;;;46.17;22.25;;;;;;;;;;4933314;29;20460;-84
2022/11/30 04:35:28;;;;;;;43.80;21.40;;;;;;;;;;4917669;28;20047;-85
2022/11/30 04:37:53;;;;;;;47.75;24.10;;;;;;;;;;4915579;29;20040;-85
2022/11/30 04:40:19;;;;;;;44.00;22.73;;;;;;;;;;4903573;29;20047;-85
2022/11/30 04:42:44;;;;;;;44.78;22.95;;;;;;;;;;4915887;29;20035;-85
2022/11/30 04:45:10;;;;;;;45.42;21.75;;;;;;;;;;4919010;28;20035;-85
2022/11/30 04:47:35;;;;;;;40.78;21.73;;;;;;;;;;4931762;28;20040;-85
2022/11/30 04:50:01;;;;;;;45.47;21.70;;;;;;;;;;4917989;28;20039;-85
2022/11/30 04:52:26;;;;;;;42.88;21.88;;;;;;;;;;4914844;29;20046;-85
2022/11/30 04:54:52;;;;;;;43.05;22.77;;;;;;;;;;4917750;29;20040;-84
2022/11/30 04:57:18;;;;;;;41.90;20.98;;;;;;;;;;4905175;29;20035;-85
2022/11/30 04:59:43;;;;;;;43.50;21.83;;;;;;;;;;4920933;29;20034;-85
2022/11/30 05:02:09;;;;;;;42.83;21.52;;;;;;;;;;4917463;28;20106;-84
2022/11/30 05:04:34;;;;;;;43.65;21.52;;;;;;;;;;4919420;28;20047;-85
2022/11/30 05:07:00;;;;;;;44.03;23.40;;;;;;;;;;4917078;29;20407;-85
2022/11/30 05:09:25;;;;;;;47.72;21.85;;;;;;;;;;4929147;29;20039;-85
2022/11/30 05:11:51;;;;;;;46.90;22.77;;;;;;;;;;4917725;28;20062;-85
2022/11/30 05:14:16;;;;;;;46.72;22.92;;;;;;;;;;4922508;29;20047;-85
2022/11/30 05:16:42;;;;;;;45.58;22.75;;;;;;;;;;4915813;29;20051;-85
2022/11/30 05:19:07;;;;;;;42.17;22.77;;;;;;;;;;4930437;28;20053;-86
2022/11/30 05:21:32;;;;;;;47.38;24.75;;;;;;;;;;4919144;29;20039;-85
2022/11/30 05:23:58;;;;;;;51.03;24.60;;;;;;;;;;4920712;28;20063;-84
2022/11/30 05:26:23;;;;;;;48.47;24.20;;;;;;;;;;4931606;28;20410;-85
2022/11/30 05:28:49;;;;;;;46.58;22.73;;;;;;;;;;4917819;29;20108;-84
2022/11/30 05:31:14;;;;;;;43.63;22.27;;;;;;;;;;4927978;28;20036;-85
2022/11/30 05:33:40;;;;;;;45.30;22.90;;;;;;;;;;4919341;28;20039;-85
2022/11/30 05:36:08;;;;;;;47.58;22.40;;;;;;;;;;4914409;29;20114;-85
2022/11/30 05:38:34;;;;;;;42.20;21.40;;;;;;;;;;4918391;28;20051;-85
2022/11/30 05:41:00;;;;;;;46.33;23.13;;;;;;;;;;4913688;29;20514;-85
2022/11/30 05:43:26;;;;;;;48.35;23.63;;;;;;;;;;4918703;29;20040;-85
2022/11/30 05:45:51;;;;;;;49.03;23.27;;;;;;;;;;4919043;28;20116;-84
2022/11/30 05:48:17;;;;;;;45.05;21.77;;;;;;;;;;4919355;29;20369;-85
2022/11/30 05:51:02;;;;;;;45.58;22.77;;;;;;;;;;4932545;29;20062;-85
2022/11/30 05:54:05;;;;;;;45.30;22.52;;;;;;;;;;4892408;29;20158;-84
2022/11/30 05:56:34;;;;;;;42.72;21.42;;;;;;;;;;4846574;29;20056;-83
2022/11/30 05:58:59;;;;;;;44.25;22.25;;;;;;;;;;4878701;29;20047;-83
2022/11/30 06:01:27;;;;;;;45.78;23.50;;;;;;;;;;4852964;29;20049;-83
2022/11/30 06:03:52;;;;;;;;;;;;;;;;;;4827831;29;20052;-86
2022/11/30 06:06:18;;;;;;;40.80;20.52;;;;;;;;;;4827922;29;19921;-84
2022/11/30 06:08:45;;;;;;;49.45;24.10;;;;;;;;;;4831672;29;20097;-85
2022/11/30 06:11:10;;;;;;;42.50;22.13;;;;;;;;;;4844484;29;20050;-84
2022/11/30 06:13:36;;;;;;;50.40;23.48;;;;;;;;;;4841248;29;20082;-85
2022/11/30 06:16:02;;;;;;;46.47;22.77;;;;;;;;;;4827943;29;20041;-84
2022/11/30 06:18:28;;;;;;;42.60;21.70;;;;;;;;;;4831126;29;20549;-84
2022/11/30 06:20:54;;;;;;;44.83;22.30;;;;;;;;;;4828372;29;20045;-85
2022/11/30 06:23:19;;;;;;;47.78;23.65;;;;;;;;;;4847206;29;20564;-86
2022/11/30 06:25:45;;;;;;;45.15;22.85;;;;;;;;;;4843718;29;20046;-80
2022/11/30 06:28:10;;;;;;;43.85;22.27;;;;;;;;;;4841866;29;20050;-81
2022/11/30 06:30:36;;;;;;;42.38;22.70;;;;;;;;;;4872611;29;20463;-81
2022/11/30 06:33:02;;;;;;;43.72;22.20;;;;;;;;;;4900348;29;20684;-81
2022/11/30 06:35:27;;;;;;;44.05;22.13;;;;;;;;;;4882558;29;20102;-81
2022/11/30 06:37:53;;;;;;;47.63;23.50;;;;;;;;;;4895954;29;20486;-84
2022/11/30 06:40:19;;;;;;;49.65;23.88;;;;;;;;;;4910640;28;20049;-83
2022/11/30 06:42:44;;;;;;;48.45;23.65;;;;;;;;;;4913375;28;20032;-82
2022/11/30 06:45:09;;;;;;;43.60;22.40;;;;;;;;;;4899308;29;20040;-84
2022/11/30 06:47:35;;;;;;;42.50;22.02;;;;;;;;;;4877153;29;20032;-84
2022/11/30 06:50:00;;;;;;;45.47;23.35;;;;;;;;;;4898351;29;20095;-85
2022/11/30 06:52:26;;;;;;;46.25;22.90;;;;;;;;;;4900774;29;20807;-84
2022/11/30 06:54:51;;;;;;;44.35;23.10;;;;;;;;;;4896115;29;20040;-84
2022/11/30 06:57:16;;;;;;;44.72;21.67;;;;;;;;;;4898269;29;20035;-84
2022/11/30 06:59:42;;;;;;;49.38;23.50;;;;;;;;;;4896596;29;20182;-84
2022/11/30 07:02:11;;;;;;;46.50;22.13;;;;;;;;;;4920305;29;20036;-84
2022/11/30 07:04:36;;;;;;;43.63;21.60;;;;;;;;;;4916252;29;20047;-84
2022/11/30 07:07:02;;;;;;;44.60;22.52;;;;;;;;;;4915916;28;20395;-84
2022/11/30 07:09:27;;;;;;;46.10;21.92;;;;;;;;;;4926565;29;20063;-83
2022/11/30 07:11:53;;;;;;;45.63;21.25;;;;;;;;;;4912445;29;20036;-83
2022/11/30 07:14:18;;;;;;;42.40;21.60;;;;;;;;;;4914461;29;20555;-84
2022/11/30 07:16:43;;;;;;;42.47;21.85;;;;;;;;;;4929499;29;20050;-83
2022/11/30 07:19:09;;;;;;;44.72;22.20;;;;;;;;;;4918613;28;20698;-85
2022/11/30 07:21:34;;;;;;;44.08;20.77;;;;;;;;;;4931057;28;20032;-85
2022/11/30 07:26:44;;;;;;;40.85;20.45;;;;;;;;;;4927623;28;20506;-83
2022/11/30 07:29:09;;;;;;;46.30;21.42;;;;;;;;;;4930931;29;20031;-84
2022/11/30 07:31:35;;;;;;;43.03;21.00;;;;;;;;;;4928626;29;20070;-84
2022/11/30 07:34:08;;;;;;;44.38;22.05;;;;;;;;;;4917896;29;20042;-85
2022/11/30 07:36:34;;;;;;;42.85;22.38;;;;;;;;;;4900464;29;20028;-84
2022/11/30 07:39:00;;;;;;;44.33;21.83;;;;;;;;;;4926738;29;20123;-84
2022/11/30 07:41:25;;;;;;;39.95;21.35;;;;;;;;;;4913207;29;20574;-84
2022/11/30 07:43:51;;;;;;;45.22;22.17;;;;;;;;;;4915857;29;20035;-84
2022/11/30 07:46:16;;;;;;;43.30;21.10;;;;;;;;;;4913305;29;20027;-85
2022/11/30 07:48:43;;;;;;;43.95;21.40;;;;;;;;;;4918179;29;20035;-85
2022/11/30 07:51:12;;;;;;;38.93;19.97;;;;;;;;;;4915201;29;20038;-85
2022/11/30 07:53:37;;;;;;;40.95;20.35;;;;;;;;;;4903971;29;20040;-85
2022/11/30 07:56:09;;;;;;;45.42;21.00;;;;;;;;;;4912756;29;20054;-85
2022/11/30 07:58:36;;;;;;;38.05;20.52;;;;;;;;;;4914687;29;20043;-85
2022/11/30 08:01:07;;;;;;;41.60;22.10;;;;;;;;;;4913851;28;20049;-85
2022/11/30 08:03:35;;;;;;;40.47;21.25;;;;;;;;;;4901482;29;20550;-85
2022/11/30 08:06:06;;;;;;;42.10;21.58;;;;;;;;;;4918960;29;20035;-85
2022/11/30 08:08:35;;;;;;;39.22;19.92;;;;;;;;;;4932308;29;20118;-85
2022/11/30 08:11:01;;;;;;;39.75;20.50;;;;;;;;;;4920215;29;20131;-85
2022/11/30 08:13:27;;;;;;;43.60;21.02;;;;;;;;;;4918918;29;20119;-85
2022/11/30 08:15:52;;;;;;;37.15;19.45;;;;;;;;;;4918320;29;20134;-85
2022/11/30 08:18:18;;;;;;;42.22;21.45;;;;;;;;;;4933007;29;20098;-85
2022/11/30 08:20:44;;;;;;;42.53;21.10;;;;;;;;;;4919872;29;20059;-86
2022/11/30 08:23:10;;;;;;;41.63;20.88;;;;;;;;;;4921126;29;20065;-86
2022/11/30 08:25:36;;;;;;;40.88;20.70;;;;;;;;;;4919103;28;20035;-85
2022/11/30 08:28:01;;;;;;;43.30;21.15;;;;;;;;;;4921421;29;20474;-85
2022/11/30 08:30:26;;;;;;;42.60;21.63;;;;;;;;;;4915929;29;20065;-85
2022/11/30 08:32:52;;;;;;;40.30;20.80;;;;;;;;;;4934742;29;20035;-85
2022/11/30 08:35:17;;;;;;;41.60;20.30;;;;;;;;;;4918300;28;20130;-85
2022/11/30 08:37:42;;;;;;;41.05;20.73;;;;;;;;;;4921098;29;20043;-84
2022/11/30 08:40:08;;;;;;;35.25;18.85;;;;;;;;;;4920255;29;20527;-85
2022/11/30 08:42:33;;;;;;;36.20;18.92;;;;;;;;;;4919087;29;20031;-86
2022/11/30 08:44:59;;;;;;;38.60;20.05;;;;;;;;;;4916751;29;20047;-84
2022/11/30 08:47:24;;;;;;;42.05;21.13;;;;;;;;;;4934501;29;20054;-84
2022/11/30 08:49:50;;;;;;;36.05;19.42;;;;;;;;;;4937181;29;20066;-84
2022/11/30 08:52:15;;;;;;;38.72;20.10;;;;;;;;;;4934740;29;20443;-84
2022/11/30 08:54:44;;;;;;;41.58;20.17;;;;;;;;;;4919791;28;20071;-85
2022/11/30 08:57:12;;;;;;;40.90;20.52;;;;;;;;;;4933179;29;20063;-85
2022/11/30 08:59:37;;;;;;;41.70;19.70;;;;;;;;;;4936310;28;20038;-85
2022/11/30 09:02:03;;;;;;;37.97;20.10;;;;;;;;;;4923273;29;20040;-85
2022/11/30 09:04:31;;;;;;;40.35;20.08;;;;;;;;;;4923160;28;20038;-85
2022/11/30 09:06:57;;;;;;;;;;;;;;;;;;4922841;29;20054;-85
2022/11/30 09:09:24;;;;;;;37.07;19.27;;;;;;;;;;4947657;28;19919;-85
2022/11/30 09:11:50;;;;;;;40.13;19.98;;;;;;;;;;4903296;29;20624;-85
2022/11/30 09:14:18;;;;;;;41.17;19.98;;;;;;;;;;4933495;29;20216;-86
2022/11/30 09:16:43;;;;;;;40.25;19.85;;;;;;;;;;4918544;29;20047;-86
2022/11/30 09:19:08;;;;;;;34.47;18.45;;;;;;;;;;4918612;29;20028;-86
2022/11/30 09:21:34;;;;;;;38.50;19.55;;;;;;;;;;4932738;28;20070;-85
2022/11/30 09:23:59;;;;;;;37.67;19.30;;;;;;;;;;4932098;29;20528;-85
2022/11/30 09:26:28;;;;;;;39.30;20.50;;;;;;;;;;4932539;28;20047;-85
2022/11/30 09:28:53;;;;;;;34.60;18.40;;;;;;;;;;4917382;29;20027;-84
2022/11/30 09:31:23;;;;;;;40.58;19.30;;;;;;;;;;4918054;29;20054;-85
2022/11/30 09:33:49;;;;;;;38.70;18.80;;;;;;;;;;4924031;29;20039;-85
2022/11/30 09:36:17;;;;;;;36.80;19.98;;;;;;;;;;4932765;28;20550;-85
2022/11/30 09:38:43;;;;;;;35.75;19.27;;;;;;;;;;4934785;29;20058;-85
2022/11/30 09:41:27;;;;;;;41.10;19.92;;;;;;;;;;4917516;28;20074;-85
2022/11/30 09:44:07;;;;;;;37.88;19.13;;;;;;;;;;4935283;29;20039;-85
2022/11/30 09:46:43;;;;;;;33.03;17.42;;;;;;;;;;4932320;29;20047;-85
2022/11/30 09:49:33;;;;;;;34.83;18.10;;;;;;;;;;4915731;28;20079;-85
2022/11/30 09:52:03;;;;;;;35.42;19.00;;;;;;;;;;4919246;29;20040;-85
2022/11/30 09:54:37;;;;;;;35.63;19.60;;;;;;;;;;4917609;29;20369;-85
2022/11/30 09:57:26;;;;;;;37.83;19.02;;;;;;;;;;4916166;29;20063;-85
2022/11/30 09:59:55;;;;;;;36.40;18.73;;;;;;;;;;4917324;28;20086;-85
2022/11/30 10:02:30;;;;;;;35.10;19.52;;;;;;;;;;4917089;29;20516;-85
2022/11/30 10:04:56;;;;;;;35.40;18.50;;;;;;;;;;4950715;28;20044;-85
2022/11/30 10:07:40;;;;;;;37.97;17.70;;;;;;;;;;4912028;29;20142;-85
2022/11/30 10:10:19;;;;;;;35.08;17.80;;;;;;;;;;4927104;29;20039;-85
2022/11/30 10:12:51;;;;;;;35.55;19.15;;;;;;;;;;4930997;28;20124;-85
2022/11/30 10:15:27;;;;;;;34.75;19.17;;;;;;;;;;4920995;29;20036;-85
2022/11/30 10:18:13;;;;;;;35.90;18.20;;;;;;;;;;4916305;29;20031;-85
2022/11/30 10:20:45;;;;;;;33.03;17.67;;;;;;;;;;4928526;28;20495;-86
2022/11/30 10:23:32;;;;;;;34.88;18.50;;;;;;;;;;4931713;29;20040;-85
2022/11/30 10:26:07;;;;;;;36.67;18.90;;;;;;;;;;4946601;28;20650;-85
2022/11/30 10:28:35;;;;;;;34.17;18.83;;;;;;;;;;4920246;29;20063;-85
2022/11/30 10:31:02;;;;;;;36.67;18.75;;;;;;;;;;4935025;28;20050;-86
2022/11/30 10:33:33;;;;;;;34.05;17.98;;;;;;;;;;4901187;29;20047;-85
2022/11/30 10:36:03;;;;;;;37.15;18.45;;;;;;;;;;4918564;29;20039;-85
2022/11/30 10:38:44;;;;;;;33.40;17.60;;;;;;;;;;4918433;28;20043;-85
2022/11/30 10:41:11;;;;;;;32.28;17.45;;;;;;;;;;4915492;29;20032;-85
2022/11/30 10:43:44;;;;;;;32.38;17.08;;;;;;;;;;4930349;29;20051;-86
2022/11/30 10:46:38;;;;;;;34.00;17.67;;;;;;;;;;4902181;29;20039;-85
2022/11/30 10:49:11;;;;;;;35.33;18.42;;;;;;;;;;4944000;28;20036;-85
2022/11/30 10:51:37;;;;;;;33.85;17.45;;;;;;;;;;4931252;29;20518;-85
2022/11/30 10:54:17;;;;;;;35.78;18.20;;;;;;;;;;4903660;29;20101;-85
2022/11/30 10:56:43;;;;;;;31.48;16.98;;;;;;;;;;4916255;28;20475;-84
2022/11/30 10:59:19;;;;;;;32.88;18.30;;;;;;;;;;4907546;29;20043;-85
2022/11/30 11:01:44;;;;;;;32.85;18.20;;;;;;;;;;4914452;29;20047;-85
2022/11/30 11:04:16;;;;;;;35.28;18.85;;;;;;;;;;4916893;28;20737;-84
2022/11/30 11:06:44;;;;;;;36.10;18.13;;;;;;;;;;4917573;28;20038;-85
2022/11/30 11:09:48;;;;;;;37.08;19.52;;;;;;;;;;4924609;29;20560;-84
2022/11/30 11:12:19;;;;;;;34.58;18.58;;;;;;;;;;4898191;28;20044;-84
2022/11/30 11:14:45;;;;;;;38.28;19.02;;;;;;;;;;4932648;29;20554;-84
2022/11/30 11:17:22;;;;;;;35.47;19.52;;;;;;;;;;4915053;28;21445;-84
2022/11/30 11:19:49;;;;;;;36.75;18.65;;;;;;;;;;4928949;29;20496;-85
2022/11/30 11:22:22;;;;;;;40.33;20.73;;;;;;;;;;4933073;29;20042;-84
2022/11/30 11:24:52;;;;;;;35.35;19.45;;;;;;;;;;4929444;29;20434;-85
2022/11/30 11:27:20;;;;;;;36.90;19.52;;;;;;;;;;4901433;29;20047;-86
2022/11/30 11:29:59;;;;;;;40.28;19.80;;;;;;;;;;4919652;29;20083;-84
2022/11/30 11:32:24;;;;;;;39.78;20.48;;;;;;;;;;4931957;29;20547;-86
2022/11/30 11:34:50;;;;;;;38.63;18.58;;;;;;;;;;4930023;29;20119;-85
2022/11/30 11:37:27;;;;;;;43.20;20.88;;;;;;;;;;4914417;29;20039;-84
2022/11/30 11:39:57;;;;;;;36.15;19.92;;;;;;;;;;4927186;29;20126;-84
2022/11/30 11:42:23;;;;;;;37.92;19.10;;;;;;;;;;4915308;29;20051;-84
2022/11/30 11:44:52;;;;;;;36.05;19.77;;;;;;;;;;4945035;28;20039;-84
2022/11/30 11:47:39;;;;;;;37.72;19.65;;;;;;;;;;4918645;29;20035;-84
2022/11/30 11:50:26;;;;;;;34.78;18.55;;;;;;;;;;4915700;28;20035;-85
2022/11/30 11:53:22;;;;;;;36.53;18.95;;;;;;;;;;4910113;29;20043;-84
2022/11/30 11:55:50;;;;;;;36.53;19.27;;;;;;;;;;4932392;28;20040;-84
2022/11/30 11:58:21;;;;;;;36.80;18.52;;;;;;;;;;4920529;29;20042;-84
2022/11/30 12:00:47;;;;;;;34.13;18.98;;;;;;;;;;4930461;28;20097;-84
2022/11/30 12:03:21;;;;;;;38.65;19.85;;;;;;;;;;4913500;29;20058;-85
2022/11/30 12:05:50;;;;;;;39.65;18.77;;;;;;;;;;4944563;28;21800;-85
2022/11/30 12:08:24;;;;;;;35.72;19.58;;;;;;;;;;4914652;29;20494;-84
2022/11/30 12:10:57;;;;;;;36.50;19.98;;;;;;;;;;4938777;28;20495;-84
2022/11/30 12:13:36;;;;;;;38.10;18.55;;;;;;;;;;4915065;29;20059;-84
2022/11/30 12:16:04;;;;;;;39.63;19.80;;;;;;;;;;4927135;28;20044;-84
2022/11/30 12:18:53;;;;;;;38.03;19.13;;;;;;;;;;4929660;29;20043;-85
2022/11/30 12:21:28;;;;;;;41.38;20.60;;;;;;;;;;4932006;29;20504;-85
2022/11/30 12:23:56;;;;;;;40.92;21.30;;;;;;;;;;4945940;28;20039;-84
2022/11/30 12:26:30;;;;;;;39.92;20.85;;;;;;;;;;4930178;29;20044;-84
2022/11/30 12:29:24;;;;;;;43.67;21.98;;;;;;;;;;4910404;28;20115;-84
2022/11/30 12:32:05;;;;;;;40.90;20.67;;;;;;;;;;4924931;29;20094;-83
2022/11/30 12:34:49;;;;;;;45.08;21.70;;;;;;;;;;4915144;29;20043;-84
2022/11/30 12:37:18;;;;;;;39.30;20.90;;;;;;;;;;4929989;29;20154;-84
2022/11/30 12:39:58;;;;;;;42.75;22.17;;;;;;;;;;4929291;29;20491;-84
2022/11/30 12:42:29;;;;;;;42.35;21.58;;;;;;;;;;4913451;28;20480;-84
2022/11/30 12:45:21;;;;;;;44.53;22.88;;;;;;;;;;4931584;28;20138;-84
2022/11/30 12:48:15;;;;;;;41.50;21.35;;;;;;;;;;4942589;28;20043;-85
2022/11/30 12:51:01;;;;;;;44.88;22.10;;;;;;;;;;4929618;28;20055;-85
2022/11/30 12:53:33;;;;;;;43.47;22.73;;;;;;;;;;4932138;29;20052;-84
2022/11/30 12:56:09;;;;;;;44.55;22.60;;;;;;;;;;4914978;29;20051;-85
2022/11/30 12:59:01;;;;;;;41.42;20.92;;;;;;;;;;4932871;28;20044;-85
2022/11/30 13:02:07;;;;;;;42.60;22.13;;;;;;;;;;4931873;28;20106;-85
2022/11/30 13:04:48;;;;;;;47.63;23.65;;;;;;;;;;4884952;29;20135;-85
2022/11/30 13:07:22;;;;;;;46.92;23.25;;;;;;;;;;4918175;28;20090;-85
2022/11/30 13:09:52;;;;;;;47.70;22.92;;;;;;;;;;4933471;29;20036;-85
2022/11/30 13:12:34;;;;;;;46.03;23.23;;;;;;;;;;4934501;29;20047;-85
2022/11/30 13:15:01;;;;;;;48.75;23.30;;;;;;;;;;4921904;29;20063;-85
2022/11/30 13:17:30;;;;;;;48.20;24.00;;;;;;;;;;4920044;28;20127;-86
2022/11/30 13:20:07;;;;;;;48.97;25.23;;;;;;;;;;4931928;29;20035;-84
2022/11/30 13:22:39;;;;;;;46.60;24.73;;;;;;;;;;4947310;28;20035;-85
2022/11/30 13:25:25;;;;;;;48.15;24.75;;;;;;;;;;4922636;29;20067;-84
2022/11/30 13:28:02;;;;;;;47.50;24.35;;;;;;;;;;4919210;29;20032;-84
2022/11/30 13:30:49;;;;;;;51.08;26.17;;;;;;;;;;4943948;28;20047;-84
2022/11/30 13:33:33;;;;;;;47.25;23.63;;;;;;;;;;4922552;29;20039;-84
2022/11/30 13:35:59;;;;;;;49.83;24.10;;;;;;;;;;4931836;29;20047;-85
2022/11/30 13:38:24;;;;;;;40.53;21.02;;;;;;;;;;4919935;29;20118;-85
2022/11/30 13:41:01;;;;;;;44.30;22.30;;;;;;;;;;4920896;29;20114;-84
2022/11/30 13:43:34;;;;;;;46.55;22.27;;;;;;;;;;4934926;29;20054;-85
2022/11/30 13:46:28;;;;;;;45.65;23.48;;;;;;;;;;4912804;29;20039;-85
2022/11/30 13:49:18;;;;;;;42.63;22.15;;;;;;;;;;4915319;28;20549;-85
2022/11/30 13:51:44;;;;;;;44.40;22.30;;;;;;;;;;4928874;29;20036;-86
2022/11/30 13:54:47;;;;;;;45.30;21.92;;;;;;;;;;4921991;29;20072;-85
2022/11/30 13:57:24;;;;;;;44.70;22.00;;;;;;;;;;4918206;29;20047;-85
2022/11/30 13:59:51;;;;;;;48.58;22.27;;;;;;;;;;4932035;29;20496;-85
2022/11/30 14:02:32;;;;;;;50.35;23.58;;;;;;;;;;4916997;29;20036;-85
2022/11/30 14:05:19;;;;;;;46.50;22.48;;;;;;;;;;4947316;28;20538;-85
2022/11/30 14:08:06;;;;;;;49.20;23.23;;;;;;;;;;4932648;28;20040;-85
2022/11/30 14:10:34;;;;;;;52.25;24.35;;;;;;;;;;4931364;29;20447;-85
2022/11/30 14:13:02;;;;;;;56.38;25.27;;;;;;;;;;4933209;29;20039;-85
2022/11/30 14:15:33;;;;;;;49.70;22.95;;;;;;;;;;4916398;28;20751;-85
2022/11/30 14:18:02;;;;;;;54.13;25.00;;;;;;;;;;4907144;28;20877;-86
2022/11/30 14:20:33;;;;;;;49.35;24.08;;;;;;;;;;4916577;29;20058;-85
2022/11/30 14:23:27;;;;;;;53.17;24.38;;;;;;;;;;4918795;29;20482;-86
2022/11/30 14:25:55;;;;;;;55.63;24.25;;;;;;;;;;4931014;29;20122;-85
2022/11/30 14:28:24;;;;;;;51.25;24.15;;;;;;;;;;4932758;29;20507;-85
2022/11/30 14:30:49;;;;;;;51.55;22.98;;;;;;;;;;4938416;29;20166;-86
2022/11/30 14:33:18;;;;;;;51.90;24.85;;;;;;;;;;4920503;29;20193;-85
2022/11/30 14:35:54;;;;;;;51.40;24.67;;;;;;;;;;4931728;29;20522;-84
2022/11/30 14:38:31;;;;;;;50.42;23.38;;;;;;;;;;4933851;29;20553;-86